Aviation Digital Data Service (ADDS)

Output produced by METARs form (2032 UTC 23 January 2019)
found at http://www.aviationweather.gov/metar/data/
 
METAR text: UACC 232000Z 19005MPS 9999 SCT023 M14/M15 Q1022 R22/35//55 NOSIG RMK QFE735/0980
Conditions at: UACC (ASTANA KAZAKHSTA, KZ) observed 2000 UTC 23 January 2019
Temperature: -14.0°C ( 7°F)
Dewpoint: -15.0°C ( 5°F) [RH = 92%]
Pressure (altimeter): 30.18 inches Hg (1022.0 mb)
Winds: from the S (190 degrees) at 12 MPH (10 knots; 5.1 m/s)
Visibility: 6 or more miles (10+ km)
Ceiling: at least 12,000 feet AGL
Clouds: scattered clouds at 2300 feet AGL
Weather: no significant weather observed at this time

METAR text: UACC 231930Z 19005MPS 8000 -SN OVC031 M13/M14 Q1022 R22/35//55 NOSIG RMK QFE735/0980
Conditions at: UACC (ASTANA KAZAKHSTA, KZ) observed 1930 UTC 23 January 2019
Temperature: -13.0°C ( 9°F)
Dewpoint: -14.0°C ( 7°F) [RH = 92%]
Pressure (altimeter): 30.18 inches Hg (1022.0 mb)
Winds: from the S (190 degrees) at 12 MPH (10 knots; 5.1 m/s)
Visibility: 5 miles ( 8 km)
Ceiling: 3100 feet AGL
Clouds: overcast cloud deck at 3100 feet AGL
Weather: -SN  (light snow)

METAR text: UACC 231900Z 20005MPS 7000 -SN OVC032 M12/M13 Q1022 R22/35//55 NOSIG RMK QFE735/0980
Conditions at: UACC (ASTANA KAZAKHSTA, KZ) observed 1900 UTC 23 January 2019
Temperature: -12.0°C (10°F)
Dewpoint: -13.0°C ( 9°F) [RH = 92%]
Pressure (altimeter): 30.18 inches Hg (1022.0 mb)
Winds: from the SSW (200 degrees) at 12 MPH (10 knots; 5.1 m/s)
Visibility: 4 miles ( 7 km)
Ceiling: 3200 feet AGL
Clouds: overcast cloud deck at 3200 feet AGL
Weather: -SN  (light snow)

METAR text: UACC 231830Z 20005MPS 7000 -SN OVC031 M11/M12 Q1022 R22/35//55 NOSIG RMK QFE735/0980
Conditions at: UACC (ASTANA KAZAKHSTA, KZ) observed 1830 UTC 23 January 2019
Temperature: -11.0°C (12°F)
Dewpoint: -12.0°C (10°F) [RH = 92%]
Pressure (altimeter): 30.18 inches Hg (1022.0 mb)
Winds: from the SSW (200 degrees) at 12 MPH (10 knots; 5.1 m/s)
Visibility: 4 miles ( 7 km)
Ceiling: 3100 feet AGL
Clouds: overcast cloud deck at 3100 feet AGL
Weather: -SN  (light snow)

METAR text: UACC 231800Z 20005MPS 9000 -SN OVC029 M12/M13 Q1022 R22/35//55 NOSIG RMK QFE735/0980
Conditions at: UACC (ASTANA KAZAKHSTA, KZ) observed 1800 UTC 23 January 2019
Temperature: -12.0°C (10°F)
Dewpoint: -13.0°C ( 9°F) [RH = 92%]
Pressure (altimeter): 30.18 inches Hg (1022.0 mb)
Winds: from the SSW (200 degrees) at 12 MPH (10 knots; 5.1 m/s)
Visibility: 6 miles ( 9 km)
Ceiling: 2900 feet AGL
Clouds: overcast cloud deck at 2900 feet AGL
Weather: -SN  (light snow)

METAR text: UACC 231730Z 19005MPS 6000 -SN SCT012 OVC030 M12/M13 Q1022 R22/35//55 NOSIG RMK QFE735/0981
Conditions at: UACC (ASTANA KAZAKHSTA, KZ) observed 1730 UTC 23 January 2019
Temperature: -12.0°C (10°F)
Dewpoint: -13.0°C ( 9°F) [RH = 92%]
Pressure (altimeter): 30.18 inches Hg (1022.0 mb)
Winds: from the S (190 degrees) at 12 MPH (10 knots; 5.1 m/s)
Visibility: 4 miles ( 6 km)
Ceiling: 3000 feet AGL
Clouds: scattered clouds at 1200 feet AGL
overcast cloud deck at 3000 feet AGL
Weather: -SN  (light snow)

METAR text: UACC 231700Z 19005MPS 9000 -SN SCT012 OVC030 M12/M13 Q1023 R22/35//55 NOSIG RMK QFE735/0981
Conditions at: UACC (ASTANA KAZAKHSTA, KZ) observed 1700 UTC 23 January 2019
Temperature: -12.0°C (10°F)
Dewpoint: -13.0°C ( 9°F) [RH = 92%]
Pressure (altimeter): 30.21 inches Hg (1023.0 mb)
Winds: from the S (190 degrees) at 12 MPH (10 knots; 5.1 m/s)
Visibility: 6 miles ( 9 km)
Ceiling: 3000 feet AGL
Clouds: scattered clouds at 1200 feet AGL
overcast cloud deck at 3000 feet AGL
Weather: -SN  (light snow)

METAR text: UACC 231630Z 19005MPS 9000 -SN OVC030 M11/M12 Q1023 R22/35//55 NOSIG RMK QFE735/0981
Conditions at: UACC (ASTANA KAZAKHSTA, KZ) observed 1630 UTC 23 January 2019
Temperature: -11.0°C (12°F)
Dewpoint: -12.0°C (10°F) [RH = 92%]
Pressure (altimeter): 30.21 inches Hg (1023.0 mb)
Winds: from the S (190 degrees) at 12 MPH (10 knots; 5.1 m/s)
Visibility: 6 miles ( 9 km)
Ceiling: 3000 feet AGL
Clouds: overcast cloud deck at 3000 feet AGL
Weather: -SN  (light snow)

METAR text: UACC 231600Z 19005MPS 5000 -SN FEW010 OVC025 M11/M12 Q1023 R22/35//55 NOSIG RMK QFE735/0981
Conditions at: UACC (ASTANA KAZAKHSTA, KZ) observed 1600 UTC 23 January 2019
Temperature: -11.0°C (12°F)
Dewpoint: -12.0°C (10°F) [RH = 92%]
Pressure (altimeter): 30.21 inches Hg (1023.0 mb)
Winds: from the S (190 degrees) at 12 MPH (10 knots; 5.1 m/s)
Visibility: 3 miles ( 5 km)
Ceiling: 2500 feet AGL
Clouds: few clouds at 1000 feet AGL
overcast cloud deck at 2500 feet AGL
Weather: -SN  (light snow)

METAR text: UACC 231530Z 18005MPS 8000 -SN SCT008 OVC018 M12/M13 Q1023 R22/35//55 NOSIG RMK QFE735/0981
Conditions at: UACC (ASTANA KAZAKHSTA, KZ) observed 1530 UTC 23 January 2019
Temperature: -12.0°C (10°F)
Dewpoint: -13.0°C ( 9°F) [RH = 92%]
Pressure (altimeter): 30.21 inches Hg (1023.0 mb)
Winds: from the S (180 degrees) at 12 MPH (10 knots; 5.1 m/s)
Visibility: 5 miles ( 8 km)
Ceiling: 1800 feet AGL
Clouds: scattered clouds at 800 feet AGL
overcast cloud deck at 1800 feet AGL
Weather: -SN  (light snow)

METAR text: UACC 231500Z 18006MPS 9000 -SN SCT007 OVC023 M12/M13 Q1023 R22/35//55 NOSIG RMK QFE736/0981
Conditions at: UACC (ASTANA KAZAKHSTA, KZ) observed 1500 UTC 23 January 2019
Temperature: -12.0°C (10°F)
Dewpoint: -13.0°C ( 9°F) [RH = 92%]
Pressure (altimeter): 30.21 inches Hg (1023.0 mb)
Winds: from the S (180 degrees) at 14 MPH (12 knots; 6.2 m/s)
Visibility: 6 miles ( 9 km)
Ceiling: 2300 feet AGL
Clouds: scattered clouds at 700 feet AGL
overcast cloud deck at 2300 feet AGL
Weather: -SN  (light snow)

METAR text: UACC 231430Z 19005MPS 5000 -SN SCT011 OVC026 M12/M13 Q1023 R22/25//60 NOSIG RMK QFE736/0981
Conditions at: UACC (ASTANA KAZAKHSTA, KZ) observed 1430 UTC 23 January 2019
Temperature: -12.0°C (10°F)
Dewpoint: -13.0°C ( 9°F) [RH = 92%]
Pressure (altimeter): 30.21 inches Hg (1023.0 mb)
Winds: from the S (190 degrees) at 12 MPH (10 knots; 5.1 m/s)
Visibility: 3 miles ( 5 km)
Ceiling: 2600 feet AGL
Clouds: scattered clouds at 1100 feet AGL
overcast cloud deck at 2600 feet AGL
Weather: -SN  (light snow)

METAR text: UACC 231400Z 19004MPS 9999 -SN BKN046 M12/M13 Q1023 R22/25//60 NOSIG RMK QFE736/0981
Conditions at: UACC (ASTANA KAZAKHSTA, KZ) observed 1400 UTC 23 January 2019
Temperature: -12.0°C (10°F)
Dewpoint: -13.0°C ( 9°F) [RH = 92%]
Pressure (altimeter): 30.21 inches Hg (1023.0 mb)
Winds: from the S (190 degrees) at 9 MPH (8 knots; 4.1 m/s)
Visibility: 6 or more miles (10+ km)
Ceiling: 4600 feet AGL
Clouds: broken clouds at 4600 feet AGL
Weather: -SN  (light snow)

METAR text: UACC 231330Z 18004MPS 9999 -SN BKN043 M12/M13 Q1023 R22/25//60 NOSIG RMK QFE736/0981
Conditions at: UACC (ASTANA KAZAKHSTA, KZ) observed 1330 UTC 23 January 2019
Temperature: -12.0°C (10°F)
Dewpoint: -13.0°C ( 9°F) [RH = 92%]
Pressure (altimeter): 30.21 inches Hg (1023.0 mb)
Winds: from the S (180 degrees) at 9 MPH (8 knots; 4.1 m/s)
Visibility: 6 or more miles (10+ km)
Ceiling: 4300 feet AGL
Clouds: broken clouds at 4300 feet AGL
Weather: -SN  (light snow)

METAR text: UACC 231300Z 18003MPS 9999 -SN BKN043 M14/M15 Q1023 R22/25//60 NOSIG RMK QFE736/0981
Conditions at: UACC (ASTANA KAZAKHSTA, KZ) observed 1300 UTC 23 January 2019
Temperature: -14.0°C ( 7°F)
Dewpoint: -15.0°C ( 5°F) [RH = 92%]
Pressure (altimeter): 30.21 inches Hg (1023.0 mb)
Winds: from the S (180 degrees) at 7 MPH (6 knots; 3.1 m/s)
Visibility: 6 or more miles (10+ km)
Ceiling: 4300 feet AGL
Clouds: broken clouds at 4300 feet AGL
Weather: -SN  (light snow)

METAR text: UACC 231230Z 17004MPS 9999 -SN SCT016 BKN043 M13/M14 Q1023 R22/25//60 NOSIG RMK QFE736/0981
Conditions at: UACC (ASTANA KAZAKHSTA, KZ) observed 1230 UTC 23 January 2019
Temperature: -13.0°C ( 9°F)
Dewpoint: -14.0°C ( 7°F) [RH = 92%]
Pressure (altimeter): 30.21 inches Hg (1023.0 mb)
Winds: from the S (170 degrees) at 9 MPH (8 knots; 4.1 m/s)
Visibility: 6 or more miles (10+ km)
Ceiling: 4300 feet AGL
Clouds: scattered clouds at 1600 feet AGL
broken clouds at 4300 feet AGL
Weather: -SN  (light snow)

METAR text: UACC 231200Z 17004MPS 9999 SCT016 BKN046 M12/M13 Q1023 R22/25//60 NOSIG RMK QFE736/0981
Conditions at: UACC (ASTANA KAZAKHSTA, KZ) observed 1200 UTC 23 January 2019
Temperature: -12.0°C (10°F)
Dewpoint: -13.0°C ( 9°F) [RH = 92%]
Pressure (altimeter): 30.21 inches Hg (1023.0 mb)
Winds: from the S (170 degrees) at 9 MPH (8 knots; 4.1 m/s)
Visibility: 6 or more miles (10+ km)
Ceiling: 4600 feet AGL
Clouds: scattered clouds at 1600 feet AGL
broken clouds at 4600 feet AGL
Weather: no significant weather observed at this time

METAR text: UACC 231130Z 17004MPS 160V220 9999 SCT011 BKN046 M10/M11 Q1023 R22/25//60 NOSIG RMK QFE736/0981
Conditions at: UACC (ASTANA KAZAKHSTA, KZ) observed 1130 UTC 23 January 2019
Temperature: -10.0°C (14°F)
Dewpoint: -11.0°C (12°F) [RH = 92%]
Pressure (altimeter): 30.21 inches Hg (1023.0 mb)
Winds: from the S (170 degrees) at 9 MPH (8 knots; 4.1 m/s)
Visibility: 6 or more miles (10+ km)
Ceiling: 4600 feet AGL
Clouds: scattered clouds at 1100 feet AGL
broken clouds at 4600 feet AGL
Weather: no significant weather observed at this time

METAR text: UACC 231100Z 19004MPS 9999 BKN011 M09/M11 Q1023 R22/25//60 NOSIG RMK QFE736/0981
Conditions at: UACC (ASTANA KAZAKHSTA, KZ) observed 1100 UTC 23 January 2019
Temperature: -9.0°C (16°F)
Dewpoint: -11.0°C (12°F) [RH = 85%]
Pressure (altimeter): 30.21 inches Hg (1023.0 mb)
Winds: from the S (190 degrees) at 9 MPH (8 knots; 4.1 m/s)
Visibility: 6 or more miles (10+ km)
Ceiling: 1100 feet AGL
Clouds: broken clouds at 1100 feet AGL
Weather: no significant weather observed at this time

METAR text: UACC 231030Z 19004MPS 9999 SCT011 BKN040 M09/M11 Q1023 R22/25//60 NOSIG RMK QFE736/0982
Conditions at: UACC (ASTANA KAZAKHSTA, KZ) observed 1030 UTC 23 January 2019
Temperature: -9.0°C (16°F)
Dewpoint: -11.0°C (12°F) [RH = 85%]
Pressure (altimeter): 30.21 inches Hg (1023.0 mb)
Winds: from the S (190 degrees) at 9 MPH (8 knots; 4.1 m/s)
Visibility: 6 or more miles (10+ km)
Ceiling: 4000 feet AGL
Clouds: scattered clouds at 1100 feet AGL
broken clouds at 4000 feet AGL
Weather: no significant weather observed at this time

METAR text: UACC 231000Z 20003MPS 9999 SCT014 BKN040 M09/M11 Q1023 R22/25//60 NOSIG RMK QFE736/0982
Conditions at: UACC (ASTANA KAZAKHSTA, KZ) observed 1000 UTC 23 January 2019
Temperature: -9.0°C (16°F)
Dewpoint: -11.0°C (12°F) [RH = 85%]
Pressure (altimeter): 30.21 inches Hg (1023.0 mb)
Winds: from the SSW (200 degrees) at 7 MPH (6 knots; 3.1 m/s)
Visibility: 6 or more miles (10+ km)
Ceiling: 4000 feet AGL
Clouds: scattered clouds at 1400 feet AGL
broken clouds at 4000 feet AGL
Weather: no significant weather observed at this time

METAR text: UACC 230930Z 20004MPS 9999 SCT043 M09/M11 Q1023 R22/25//60 NOSIG RMK QFE736/0982
Conditions at: UACC (ASTANA KAZAKHSTA, KZ) observed 0930 UTC 23 January 2019
Temperature: -9.0°C (16°F)
Dewpoint: -11.0°C (12°F) [RH = 85%]
Pressure (altimeter): 30.21 inches Hg (1023.0 mb)
Winds: from the SSW (200 degrees) at 9 MPH (8 knots; 4.1 m/s)
Visibility: 6 or more miles (10+ km)
Ceiling: at least 12,000 feet AGL
Clouds: scattered clouds at 4300 feet AGL
Weather: no significant weather observed at this time

METAR text: UACC 230900Z 19004MPS 9999 SCT043 M08/M10 Q1023 R22/25//60 NOSIG RMK QFE736/0982
Conditions at: UACC (ASTANA KAZAKHSTA, KZ) observed 0900 UTC 23 January 2019
Temperature: -8.0°C (18°F)
Dewpoint: -10.0°C (14°F) [RH = 85%]
Pressure (altimeter): 30.21 inches Hg (1023.0 mb)
Winds: from the S (190 degrees) at 9 MPH (8 knots; 4.1 m/s)
Visibility: 6 or more miles (10+ km)
Ceiling: at least 12,000 feet AGL
Clouds: scattered clouds at 4300 feet AGL
Weather: no significant weather observed at this time

METAR text: UACC 230830Z 18004MPS 9999 SCT010 M08/M10 Q1024 R22/25//60 NOSIG RMK QFE736/0982
Conditions at: UACC (ASTANA KAZAKHSTA, KZ) observed 0830 UTC 23 January 2019
Temperature: -8.0°C (18°F)
Dewpoint: -10.0°C (14°F) [RH = 85%]
Pressure (altimeter): 30.24 inches Hg (1024.0 mb)
Winds: from the S (180 degrees) at 9 MPH (8 knots; 4.1 m/s)
Visibility: 6 or more miles (10+ km)
Ceiling: at least 12,000 feet AGL
Clouds: scattered clouds at 1000 feet AGL
Weather: no significant weather observed at this time

METAR text: UACC 230800Z 19005MPS 9999 SCT009 BKN036 M08/M09 Q1024 R22/450555 NOSIG RMK QFE736/0982
Conditions at: UACC (ASTANA KAZAKHSTA, KZ) observed 0800 UTC 23 January 2019
Temperature: -8.0°C (18°F)
Dewpoint: -9.0°C (16°F) [RH = 92%]
Pressure (altimeter): 30.24 inches Hg (1024.0 mb)
Winds: from the S (190 degrees) at 12 MPH (10 knots; 5.1 m/s)
Visibility: 6 or more miles (10+ km)
Ceiling: 3600 feet AGL
Clouds: scattered clouds at 900 feet AGL
broken clouds at 3600 feet AGL
Weather: no significant weather observed at this time

METAR text: UACC 230730Z 21006MPS 9999 SCT008 BKN036 M08/M09 Q1024 R22/450555 NOSIG RMK QFE736/0982
Conditions at: UACC (ASTANA KAZAKHSTA, KZ) observed 0730 UTC 23 January 2019
Temperature: -8.0°C (18°F)
Dewpoint: -9.0°C (16°F) [RH = 92%]
Pressure (altimeter): 30.24 inches Hg (1024.0 mb)
Winds: from the SSW (210 degrees) at 14 MPH (12 knots; 6.2 m/s)
Visibility: 6 or more miles (10+ km)
Ceiling: 3600 feet AGL
Clouds: scattered clouds at 800 feet AGL
broken clouds at 3600 feet AGL
Weather: no significant weather observed at this time

METAR text: UACC 230700Z 20005MPS 9999 -SN SCT008 BKN036 M08/M09 Q1024 R22/450555 NOSIG RMK QFE736/0982
Conditions at: UACC (ASTANA KAZAKHSTA, KZ) observed 0700 UTC 23 January 2019
Temperature: -8.0°C (18°F)
Dewpoint: -9.0°C (16°F) [RH = 92%]
Pressure (altimeter): 30.24 inches Hg (1024.0 mb)
Winds: from the SSW (200 degrees) at 12 MPH (10 knots; 5.1 m/s)
Visibility: 6 or more miles (10+ km)
Ceiling: 3600 feet AGL
Clouds: scattered clouds at 800 feet AGL
broken clouds at 3600 feet AGL
Weather: -SN  (light snow)

METAR text: UACC 230630Z 19004MPS 9999 -SN SCT008 BKN036 M08/M09 Q1024 R22/450555 NOSIG RMK QFE737/0982
Conditions at: UACC (ASTANA KAZAKHSTA, KZ) observed 0630 UTC 23 January 2019
Temperature: -8.0°C (18°F)
Dewpoint: -9.0°C (16°F) [RH = 92%]
Pressure (altimeter): 30.24 inches Hg (1024.0 mb)
Winds: from the S (190 degrees) at 9 MPH (8 knots; 4.1 m/s)
Visibility: 6 or more miles (10+ km)
Ceiling: 3600 feet AGL
Clouds: scattered clouds at 800 feet AGL
broken clouds at 3600 feet AGL
Weather: -SN  (light snow)

METAR text: UACC 230600Z 19004MPS 9999 SCT006 OVC026 M09/M09 Q1024 R22/450555 NOSIG RMK QBB190 QFE737/0982
Conditions at: UACC (ASTANA KAZAKHSTA, KZ) observed 0600 UTC 23 January 2019
Temperature: -9.0°C (16°F)
Dewpoint: -9.0°C (16°F) [RH = 100%]
Pressure (altimeter): 30.24 inches Hg (1024.0 mb)
Winds: from the S (190 degrees) at 9 MPH (8 knots; 4.1 m/s)
Visibility: 6 or more miles (10+ km)
Ceiling: 2600 feet AGL
Clouds: scattered clouds at 600 feet AGL
overcast cloud deck at 2600 feet AGL
Weather: no significant weather observed at this time

METAR text: UACC 230530Z 20005MPS 9999 BKN007 OVC026 M09/M10 Q1024 R22/451050 NOSIG RMK QFE737/0982
Conditions at: UACC (ASTANA KAZAKHSTA, KZ) observed 0530 UTC 23 January 2019
Temperature: -9.0°C (16°F)
Dewpoint: -10.0°C (14°F) [RH = 92%]
Pressure (altimeter): 30.24 inches Hg (1024.0 mb)
Winds: from the SSW (200 degrees) at 12 MPH (10 knots; 5.1 m/s)
Visibility: 6 or more miles (10+ km)
Ceiling: 700 feet AGL
Clouds: broken clouds at 700 feet AGL
overcast cloud deck at 2600 feet AGL
Weather: no significant weather observed at this time

METAR text: UACC 230500Z 19004MPS 9999 -SN BKN007 OVC026 M10/M10 Q1024 R22/451050 NOSIG RMK QFE737/0982
Conditions at: UACC (ASTANA KAZAKHSTA, KZ) observed 0500 UTC 23 January 2019
Temperature: -10.0°C (14°F)
Dewpoint: -10.0°C (14°F) [RH = 100%]
Pressure (altimeter): 30.24 inches Hg (1024.0 mb)
Winds: from the S (190 degrees) at 9 MPH (8 knots; 4.1 m/s)
Visibility: 6 or more miles (10+ km)
Ceiling: 700 feet AGL
Clouds: broken clouds at 700 feet AGL
overcast cloud deck at 2600 feet AGL
Weather: -SN  (light snow)

METAR text: UACC 230430Z 20004MPS 9000 -SN SCT008 BKN043 M10/M11 Q1024 R22/451050 TEMPO 2000 SN BKN007 RMK QFE737/0982
Conditions at: UACC (ASTANA KAZAKHSTA, KZ) observed 0430 UTC 23 January 2019
Temperature: -10.0°C (14°F)
Dewpoint: -11.0°C (12°F) [RH = 92%]
Pressure (altimeter): 30.24 inches Hg (1024.0 mb)
Winds: from the SSW (200 degrees) at 9 MPH (8 knots; 4.1 m/s)
Visibility: 6 miles ( 9 km)
Ceiling: 4300 feet AGL
Clouds: scattered clouds at 800 feet AGL
broken clouds at 4300 feet AGL
Weather: -SN  (light snow)

METAR text: UACC 230400Z 19004MPS 9999 -SN SCT008 BKN043 M10/M11 Q1024 R22/451050 TEMPO 2000 SN BKN007 RMK QFE737/0982
Conditions at: UACC (ASTANA KAZAKHSTA, KZ) observed 0400 UTC 23 January 2019
Temperature: -10.0°C (14°F)
Dewpoint: -11.0°C (12°F) [RH = 92%]
Pressure (altimeter): 30.24 inches Hg (1024.0 mb)
Winds: from the S (190 degrees) at 9 MPH (8 knots; 4.1 m/s)
Visibility: 6 or more miles (10+ km)
Ceiling: 4300 feet AGL
Clouds: scattered clouds at 800 feet AGL
broken clouds at 4300 feet AGL
Weather: -SN  (light snow)

METAR text: UACC 230330Z 18004MPS 3000 SN SCT016 BKN043 M09/M10 Q1024 R22/451050 TEMPO 2000 SN BKN007 RMK QFE737/0982
Conditions at: UACC (ASTANA KAZAKHSTA, KZ) observed 0330 UTC 23 January 2019
Temperature: -9.0°C (16°F)
Dewpoint: -10.0°C (14°F) [RH = 92%]
Pressure (altimeter): 30.24 inches Hg (1024.0 mb)
Winds: from the S (180 degrees) at 9 MPH (8 knots; 4.1 m/s)
Visibility: 1.86 miles (2.99 km)
Ceiling: 4300 feet AGL
Clouds: scattered clouds at 1600 feet AGL
broken clouds at 4300 feet AGL
Weather: SN  (moderate snow)

METAR text: UACC 230300Z 19005MPS 9999 -SG OVC014 M09/M09 Q1024 R22/3///55 NOSIG RMK QFE737/0982
Conditions at: UACC (ASTANA KAZAKHSTA, KZ) observed 0300 UTC 23 January 2019
Temperature: -9.0°C (16°F)
Dewpoint: -9.0°C (16°F) [RH = 100%]
Pressure (altimeter): 30.24 inches Hg (1024.0 mb)
Winds: from the S (190 degrees) at 12 MPH (10 knots; 5.1 m/s)
Visibility: 6 or more miles (10+ km)
Ceiling: 1400 feet AGL
Clouds: overcast cloud deck at 1400 feet AGL
Weather: -SG  (light snow grains)

METAR text: UACC 230230Z 19004MPS 9999 -SG OVC014 M08/M09 Q1024 R22/3///55 NOSIG RMK QFE736/0982
Conditions at: UACC (ASTANA KAZAKHSTA, KZ) observed 0230 UTC 23 January 2019
Temperature: -8.0°C (18°F)
Dewpoint: -9.0°C (16°F) [RH = 92%]
Pressure (altimeter): 30.24 inches Hg (1024.0 mb)
Winds: from the S (190 degrees) at 9 MPH (8 knots; 4.1 m/s)
Visibility: 6 or more miles (10+ km)
Ceiling: 1400 feet AGL
Clouds: overcast cloud deck at 1400 feet AGL
Weather: -SG  (light snow grains)

METAR text: UACC 230200Z 18005MPS 9999 -SG OVC014 M09/M09 Q1024 R22/3///55 NOSIG RMK QFE736/0982
Conditions at: UACC (ASTANA KAZAKHSTA, KZ) observed 0200 UTC 23 January 2019
Temperature: -9.0°C (16°F)
Dewpoint: -9.0°C (16°F) [RH = 100%]
Pressure (altimeter): 30.24 inches Hg (1024.0 mb)
Winds: from the S (180 degrees) at 12 MPH (10 knots; 5.1 m/s)
Visibility: 6 or more miles (10+ km)
Ceiling: 1400 feet AGL
Clouds: overcast cloud deck at 1400 feet AGL
Weather: -SG  (light snow grains)

METAR text: UACC 230130Z 18005MPS 9999 OVC016 M09/M09 Q1024 R22/3///55 NOSIG RMK QFE736/0982
Conditions at: UACC (ASTANA KAZAKHSTA, KZ) observed 0130 UTC 23 January 2019
Temperature: -9.0°C (16°F)
Dewpoint: -9.0°C (16°F) [RH = 100%]
Pressure (altimeter): 30.24 inches Hg (1024.0 mb)
Winds: from the S (180 degrees) at 12 MPH (10 knots; 5.1 m/s)
Visibility: 6 or more miles (10+ km)
Ceiling: 1600 feet AGL
Clouds: overcast cloud deck at 1600 feet AGL
Weather: no significant weather observed at this time

METAR text: UACC 230100Z 19005MPS 9999 OVC019 M09/M09 Q1024 R22/3///55 NOSIG RMK QFE736/0982
Conditions at: UACC (ASTANA KAZAKHSTA, KZ) observed 0100 UTC 23 January 2019
Temperature: -9.0°C (16°F)
Dewpoint: -9.0°C (16°F) [RH = 100%]
Pressure (altimeter): 30.24 inches Hg (1024.0 mb)
Winds: from the S (190 degrees) at 12 MPH (10 knots; 5.1 m/s)
Visibility: 6 or more miles (10+ km)
Ceiling: 1900 feet AGL
Clouds: overcast cloud deck at 1900 feet AGL
Weather: no significant weather observed at this time

METAR text: UACC 230030Z 18004MPS 9000 -SN OVC019 M09/M10 Q1024 R22/450255 NOSIG RMK QFE736/0982
Conditions at: UACC (ASTANA KAZAKHSTA, KZ) observed 0030 UTC 23 January 2019
Temperature: -9.0°C (16°F)
Dewpoint: -10.0°C (14°F) [RH = 92%]
Pressure (altimeter): 30.24 inches Hg (1024.0 mb)
Winds: from the S (180 degrees) at 9 MPH (8 knots; 4.1 m/s)
Visibility: 6 miles ( 9 km)
Ceiling: 1900 feet AGL
Clouds: overcast cloud deck at 1900 feet AGL
Weather: -SN  (light snow)

METAR text: UACC 230000Z 18003MPS 9000 -SN OVC019 M11/M11 Q1024 R22/450255 NOSIG RMK QFE736/0982
Conditions at: UACC (ASTANA KAZAKHSTA, KZ) observed 0000 UTC 23 January 2019
Temperature: -11.0°C (12°F)
Dewpoint: -11.0°C (12°F) [RH = 100%]
Pressure (altimeter): 30.24 inches Hg (1024.0 mb)
Winds: from the S (180 degrees) at 7 MPH (6 knots; 3.1 m/s)
Visibility: 6 miles ( 9 km)
Ceiling: 1900 feet AGL
Clouds: overcast cloud deck at 1900 feet AGL
Weather: -SN  (light snow)

METAR text: UACC 222330Z 18003MPS 9999 -SN OVC023 M11/M12 Q1024 R22/450255 NOSIG RMK QFE736/0982
Conditions at: UACC (ASTANA KAZAKHSTA, KZ) observed 2330 UTC 22 January 2019
Temperature: -11.0°C (12°F)
Dewpoint: -12.0°C (10°F) [RH = 92%]
Pressure (altimeter): 30.24 inches Hg (1024.0 mb)
Winds: from the S (180 degrees) at 7 MPH (6 knots; 3.1 m/s)
Visibility: 6 or more miles (10+ km)
Ceiling: 2300 feet AGL
Clouds: overcast cloud deck at 2300 feet AGL
Weather: -SN  (light snow)

METAR text: UACC 222300Z 18003MPS 9999 OVC025 M12/M13 Q1024 R22/450255 NOSIG RMK QFE736/0982
Conditions at: UACC (ASTANA KAZAKHSTA, KZ) observed 2300 UTC 22 January 2019
Temperature: -12.0°C (10°F)
Dewpoint: -13.0°C ( 9°F) [RH = 92%]
Pressure (altimeter): 30.24 inches Hg (1024.0 mb)
Winds: from the S (180 degrees) at 7 MPH (6 knots; 3.1 m/s)
Visibility: 6 or more miles (10+ km)
Ceiling: 2500 feet AGL
Clouds: overcast cloud deck at 2500 feet AGL
Weather: no significant weather observed at this time

METAR text: UACC 222230Z 19003MPS 9999 OVC014 M12/M13 Q1024 R22/450255 NOSIG RMK QFE736/0982
Conditions at: UACC (ASTANA KAZAKHSTA, KZ) observed 2230 UTC 22 January 2019
Temperature: -12.0°C (10°F)
Dewpoint: -13.0°C ( 9°F) [RH = 92%]
Pressure (altimeter): 30.24 inches Hg (1024.0 mb)
Winds: from the S (190 degrees) at 7 MPH (6 knots; 3.1 m/s)
Visibility: 6 or more miles (10+ km)
Ceiling: 1400 feet AGL
Clouds: overcast cloud deck at 1400 feet AGL
Weather: no significant weather observed at this time

METAR text: UACC 222200Z 20002MPS 9999 BKN014 M12/M13 Q1024 R22/450255 NOSIG RMK QFE736/0982
Conditions at: UACC (ASTANA KAZAKHSTA, KZ) observed 2200 UTC 22 January 2019
Temperature: -12.0°C (10°F)
Dewpoint: -13.0°C ( 9°F) [RH = 92%]
Pressure (altimeter): 30.24 inches Hg (1024.0 mb)
Winds: from the SSW (200 degrees) at 5 MPH (4 knots; 2.1 m/s)
Visibility: 6 or more miles (10+ km)
Ceiling: 1400 feet AGL
Clouds: broken clouds at 1400 feet AGL
Weather: no significant weather observed at this time

METAR text: UACC 222130Z 20002MPS 9999 BKN018 M13/M14 Q1024 R22/450255 NOSIG RMK QFE737/0982
Conditions at: UACC (ASTANA KAZAKHSTA, KZ) observed 2130 UTC 22 January 2019
Temperature: -13.0°C ( 9°F)
Dewpoint: -14.0°C ( 7°F) [RH = 92%]
Pressure (altimeter): 30.24 inches Hg (1024.0 mb)
Winds: from the SSW (200 degrees) at 5 MPH (4 knots; 2.1 m/s)
Visibility: 6 or more miles (10+ km)
Ceiling: 1800 feet AGL
Clouds: broken clouds at 1800 feet AGL
Weather: no significant weather observed at this time

METAR text: UACC 222100Z 20002MPS 9999 SCT007 BKN020 M15/M16 Q1024 R22/450255 NOSIG RMK QFE737/0982
Conditions at: UACC (ASTANA KAZAKHSTA, KZ) observed 2100 UTC 22 January 2019
Temperature: -15.0°C ( 5°F)
Dewpoint: -16.0°C ( 3°F) [RH = 92%]
Pressure (altimeter): 30.24 inches Hg (1024.0 mb)
Winds: from the SSW (200 degrees) at 5 MPH (4 knots; 2.1 m/s)
Visibility: 6 or more miles (10+ km)
Ceiling: 2000 feet AGL
Clouds: scattered clouds at 700 feet AGL
broken clouds at 2000 feet AGL
Weather: no significant weather observed at this time

METAR text: UACC 222030Z 18001MPS 9999 SCT007 BKN020 M16/M18 Q1024 R22/450255 NOSIG RMK QFE737/0982
Conditions at: UACC (ASTANA KAZAKHSTA, KZ) observed 2030 UTC 22 January 2019
Temperature: -16.0°C ( 3°F)
Dewpoint: -18.0°C (-0°F) [RH = 85%]
Pressure (altimeter): 30.24 inches Hg (1024.0 mb)
Winds: from the S (180 degrees) at 2 MPH (2 knots; 1.0 m/s)
Visibility: 6 or more miles (10+ km)
Ceiling: 2000 feet AGL
Clouds: scattered clouds at 700 feet AGL
broken clouds at 2000 feet AGL
Weather: no significant weather observed at this time

METAR text: UACC 222000Z 21002MPS 9999 SCT004 BKN020 M16/M17 Q1024 R22/450255 NOSIG RMK QBB120 QFE737/0982
Conditions at: UACC (ASTANA KAZAKHSTA, KZ) observed 2000 UTC 22 January 2019
Temperature: -16.0°C ( 3°F)
Dewpoint: -17.0°C ( 1°F) [RH = 92%]
Pressure (altimeter): 30.24 inches Hg (1024.0 mb)
Winds: from the SSW (210 degrees) at 5 MPH (4 knots; 2.1 m/s)
Visibility: 6 or more miles (10+ km)
Ceiling: 2000 feet AGL
Clouds: scattered clouds at 400 feet AGL
broken clouds at 2000 feet AGL
Weather: no significant weather observed at this time

METAR text: UACC 221930Z 22002MPS 5000 -SG OVC002 M15/M16 Q1024 R22/450255 NOSIG RMK QBB080 QFE737/0982
Conditions at: UACC (ASTANA KAZAKHSTA, KZ) observed 1930 UTC 22 January 2019
Temperature: -15.0°C ( 5°F)
Dewpoint: -16.0°C ( 3°F) [RH = 92%]
Pressure (altimeter): 30.24 inches Hg (1024.0 mb)
Winds: from the SW (220 degrees) at 5 MPH (4 knots; 2.1 m/s)
Visibility: 3 miles ( 5 km)
Ceiling: 200 feet AGL
Clouds: overcast cloud deck at 200 feet AGL
Weather: -SG  (light snow grains)

METAR text: UACC 221900Z 19003MPS 3200 SG OVC002 M15/M16 Q1025 R22/3///60 NOSIG RMK QBB080 QFE737/0983
Conditions at: UACC (ASTANA KAZAKHSTA, KZ) observed 1900 UTC 22 January 2019
Temperature: -15.0°C ( 5°F)
Dewpoint: -16.0°C ( 3°F) [RH = 92%]
Pressure (altimeter): 30.27 inches Hg (1025.0 mb)
Winds: from the S (190 degrees) at 7 MPH (6 knots; 3.1 m/s)
Visibility: 1.99 miles (3.20 km)
Ceiling: 200 feet AGL
Clouds: overcast cloud deck at 200 feet AGL
Weather: SG  (moderate snow grains)

METAR text: UACC 221830Z 17002MPS 7000 -SG OVC003 M15/M16 Q1025 R22/3///60 NOSIG RMK QBB090 QFE737/0983
Conditions at: UACC (ASTANA KAZAKHSTA, KZ) observed 1830 UTC 22 January 2019
Temperature: -15.0°C ( 5°F)
Dewpoint: -16.0°C ( 3°F) [RH = 92%]
Pressure (altimeter): 30.27 inches Hg (1025.0 mb)
Winds: from the S (170 degrees) at 5 MPH (4 knots; 2.1 m/s)
Visibility: 4 miles ( 7 km)
Ceiling: 300 feet AGL
Clouds: overcast cloud deck at 300 feet AGL
Weather: -SG  (light snow grains)

METAR text: UACC 221800Z 20002MPS 3300 SG OVC003 M14/M15 Q1025 R22/3///60 NOSIG RMK QBB110 QFE737/0983
Conditions at: UACC (ASTANA KAZAKHSTA, KZ) observed 1800 UTC 22 January 2019
Temperature: -14.0°C ( 7°F)
Dewpoint: -15.0°C ( 5°F) [RH = 92%]
Pressure (altimeter): 30.27 inches Hg (1025.0 mb)
Winds: from the SSW (200 degrees) at 5 MPH (4 knots; 2.1 m/s)
Visibility: 2.05 miles (3.30 km)
Ceiling: 300 feet AGL
Clouds: overcast cloud deck at 300 feet AGL
Weather: SG  (moderate snow grains)

METAR text: UACC 221730Z 20003MPS 4200 -SG OVC004 M15/M16 Q1025 R22/3///60 NOSIG RMK QBB120 QFE737/0983
Conditions at: UACC (ASTANA KAZAKHSTA, KZ) observed 1730 UTC 22 January 2019
Temperature: -15.0°C ( 5°F)
Dewpoint: -16.0°C ( 3°F) [RH = 92%]
Pressure (altimeter): 30.27 inches Hg (1025.0 mb)
Winds: from the SSW (200 degrees) at 7 MPH (6 knots; 3.1 m/s)
Visibility: 2.61 miles (4.20 km)
Ceiling: 400 feet AGL
Clouds: overcast cloud deck at 400 feet AGL
Weather: -SG  (light snow grains)

METAR text: UACC 221700Z 20003MPS 4600 -SG OVC004 M14/M15 Q1025 R22/35//55 NOSIG RMK QBB120 QFE737/0983
Conditions at: UACC (ASTANA KAZAKHSTA, KZ) observed 1700 UTC 22 January 2019
Temperature: -14.0°C ( 7°F)
Dewpoint: -15.0°C ( 5°F) [RH = 92%]
Pressure (altimeter): 30.27 inches Hg (1025.0 mb)
Winds: from the SSW (200 degrees) at 7 MPH (6 knots; 3.1 m/s)
Visibility: 2.86 miles (4.60 km)
Ceiling: 400 feet AGL
Clouds: overcast cloud deck at 400 feet AGL
Weather: -SG  (light snow grains)

METAR text: UACC 221630Z 20003MPS 3900 SG OVC005 M17/M18 Q1025 R22/35//55 NOSIG RMK QBB150 QFE737/0983
Conditions at: UACC (ASTANA KAZAKHSTA, KZ) observed 1630 UTC 22 January 2019
Temperature: -17.0°C ( 1°F)
Dewpoint: -18.0°C (-0°F) [RH = 92%]
Pressure (altimeter): 30.27 inches Hg (1025.0 mb)
Winds: from the SSW (200 degrees) at 7 MPH (6 knots; 3.1 m/s)
Visibility: 2.42 miles (3.89 km)
Ceiling: 500 feet AGL
Clouds: overcast cloud deck at 500 feet AGL
Weather: SG  (moderate snow grains)

METAR text: UACC 221600Z 19002MPS 9999 SCT007 M19/M21 Q1025 R22/35//55 NOSIG RMK QFE737/0983
Conditions at: UACC (ASTANA KAZAKHSTA, KZ) observed 1600 UTC 22 January 2019
Temperature: -19.0°C (-2°F)
Dewpoint: -21.0°C (-6°F) [RH = 84%]
Pressure (altimeter): 30.27 inches Hg (1025.0 mb)
Winds: from the S (190 degrees) at 5 MPH (4 knots; 2.1 m/s)
Visibility: 6 or more miles (10+ km)
Ceiling: at least 12,000 feet AGL
Clouds: scattered clouds at 700 feet AGL
Weather: no significant weather observed at this time

METAR text: UACC 221530Z 20002MPS 9999 FEW010 M18/M19 Q1026 R22/35//55 NOSIG RMK QFE738/0984
Conditions at: UACC (ASTANA KAZAKHSTA, KZ) observed 1530 UTC 22 January 2019
Temperature: -18.0°C (-0°F)
Dewpoint: -19.0°C (-2°F) [RH = 92%]
Pressure (altimeter): 30.30 inches Hg (1026.0 mb)
Winds: from the SSW (200 degrees) at 5 MPH (4 knots; 2.1 m/s)
Visibility: 6 or more miles (10+ km)
Ceiling: at least 12,000 feet AGL
Clouds: few clouds at 1000 feet AGL
Weather: no significant weather observed at this time

METAR text: UACC 221500Z 21002MPS 9999 FEW010 M18/M19 Q1026 R22/35//55 NOSIG RMK QFE738/0984
Conditions at: UACC (ASTANA KAZAKHSTA, KZ) observed 1500 UTC 22 January 2019
Temperature: -18.0°C (-0°F)
Dewpoint: -19.0°C (-2°F) [RH = 92%]
Pressure (altimeter): 30.30 inches Hg (1026.0 mb)
Winds: from the SSW (210 degrees) at 5 MPH (4 knots; 2.1 m/s)
Visibility: 6 or more miles (10+ km)
Ceiling: at least 12,000 feet AGL
Clouds: few clouds at 1000 feet AGL
Weather: no significant weather observed at this time

METAR text: UACC 221430Z 20002MPS 9999 FEW010 M17/M18 Q1026 R22/35//55 NOSIG RMK QFE738/0984
Conditions at: UACC (ASTANA KAZAKHSTA, KZ) observed 1430 UTC 22 January 2019
Temperature: -17.0°C ( 1°F)
Dewpoint: -18.0°C (-0°F) [RH = 92%]
Pressure (altimeter): 30.30 inches Hg (1026.0 mb)
Winds: from the SSW (200 degrees) at 5 MPH (4 knots; 2.1 m/s)
Visibility: 6 or more miles (10+ km)
Ceiling: at least 12,000 feet AGL
Clouds: few clouds at 1000 feet AGL
Weather: no significant weather observed at this time

METAR text: UACC 221400Z 17002MPS 6000 SCT002 M15/M17 Q1026 R22/35//55 TEMPO 1000 BR BKN002 RMK QBB070 QFE738/0984
Conditions at: UACC (ASTANA KAZAKHSTA, KZ) observed 1400 UTC 22 January 2019
Temperature: -15.0°C ( 5°F)
Dewpoint: -17.0°C ( 1°F) [RH = 85%]
Pressure (altimeter): 30.30 inches Hg (1026.0 mb)
Winds: from the S (170 degrees) at 5 MPH (4 knots; 2.1 m/s)
Visibility: 4 miles ( 6 km)
Ceiling: at least 12,000 feet AGL
Clouds: scattered clouds at 200 feet AGL
Weather: no significant weather observed at this time

METAR text: UACC 221330Z 18003MPS 4500 BR BKN002 M15/M17 Q1025 R22/35//55 TEMPO 1000 BR BKN002 RMK QBB060 QFE737/0983
Conditions at: UACC (ASTANA KAZAKHSTA, KZ) observed 1330 UTC 22 January 2019
Temperature: -15.0°C ( 5°F)
Dewpoint: -17.0°C ( 1°F) [RH = 85%]
Pressure (altimeter): 30.27 inches Hg (1025.0 mb)
Winds: from the S (180 degrees) at 7 MPH (6 knots; 3.1 m/s)
Visibility: 2.80 miles (4.51 km)
Ceiling: 200 feet AGL
Clouds: broken clouds at 200 feet AGL
Weather: BR  (mist)

METAR text: UACC 221300Z 18003MPS 150V210 8000 SCT007 M15/M17 Q1025 R22/35//55 NOSIG RMK QFE737/0983
Conditions at: UACC (ASTANA KAZAKHSTA, KZ) observed 1300 UTC 22 January 2019
Temperature: -15.0°C ( 5°F)
Dewpoint: -17.0°C ( 1°F) [RH = 85%]
Pressure (altimeter): 30.27 inches Hg (1025.0 mb)
Winds: from the S (180 degrees) at 7 MPH (6 knots; 3.1 m/s)
Visibility: 5 miles ( 8 km)
Ceiling: at least 12,000 feet AGL
Clouds: scattered clouds at 700 feet AGL
Weather: no significant weather observed at this time

METAR text: UACC 221230Z 19003MPS 9999 BKN007 M14/M15 Q1025 R22/35//55 NOSIG RMK QFE737/0983
Conditions at: UACC (ASTANA KAZAKHSTA, KZ) observed 1230 UTC 22 January 2019
Temperature: -14.0°C ( 7°F)
Dewpoint: -15.0°C ( 5°F) [RH = 92%]
Pressure (altimeter): 30.27 inches Hg (1025.0 mb)
Winds: from the S (190 degrees) at 7 MPH (6 knots; 3.1 m/s)
Visibility: 6 or more miles (10+ km)
Ceiling: 700 feet AGL
Clouds: broken clouds at 700 feet AGL
Weather: no significant weather observed at this time

METAR text: UACC 221200Z 17004MPS 9000 BKN008 M16/M17 Q1026 R22/35//55 NOSIG RMK QFE738/0984
Conditions at: UACC (ASTANA KAZAKHSTA, KZ) observed 1200 UTC 22 January 2019
Temperature: -16.0°C ( 3°F)
Dewpoint: -17.0°C ( 1°F) [RH = 92%]
Pressure (altimeter): 30.30 inches Hg (1026.0 mb)
Winds: from the S (170 degrees) at 9 MPH (8 knots; 4.1 m/s)
Visibility: 6 miles ( 9 km)
Ceiling: 800 feet AGL
Clouds: broken clouds at 800 feet AGL
Weather: no significant weather observed at this time

METAR text: UACC 221130Z 16003MPS 8000 BKN011 M14/M15 Q1026 R22/35//55 NOSIG RMK QFE738/0984
Conditions at: UACC (ASTANA KAZAKHSTA, KZ) observed 1130 UTC 22 January 2019
Temperature: -14.0°C ( 7°F)
Dewpoint: -15.0°C ( 5°F) [RH = 92%]
Pressure (altimeter): 30.30 inches Hg (1026.0 mb)
Winds: from the SSE (160 degrees) at 7 MPH (6 knots; 3.1 m/s)
Visibility: 5 miles ( 8 km)
Ceiling: 1100 feet AGL
Clouds: broken clouds at 1100 feet AGL
Weather: no significant weather observed at this time

METAR text: UACC 221100Z 16003MPS 9000 BKN010 M13/M14 Q1026 R22/35//55 NOSIG RMK QFE738/0984
Conditions at: UACC (ASTANA KAZAKHSTA, KZ) observed 1100 UTC 22 January 2019
Temperature: -13.0°C ( 9°F)
Dewpoint: -14.0°C ( 7°F) [RH = 92%]
Pressure (altimeter): 30.30 inches Hg (1026.0 mb)
Winds: from the SSE (160 degrees) at 7 MPH (6 knots; 3.1 m/s)
Visibility: 6 miles ( 9 km)
Ceiling: 1000 feet AGL
Clouds: broken clouds at 1000 feet AGL
Weather: no significant weather observed at this time

METAR text: UACC 221030Z 16003MPS 9999 BKN014 M12/M13 Q1026 R22/35//55 NOSIG RMK QFE738/0984
Conditions at: UACC (ASTANA KAZAKHSTA, KZ) observed 1030 UTC 22 January 2019
Temperature: -12.0°C (10°F)
Dewpoint: -13.0°C ( 9°F) [RH = 92%]
Pressure (altimeter): 30.30 inches Hg (1026.0 mb)
Winds: from the SSE (160 degrees) at 7 MPH (6 knots; 3.1 m/s)
Visibility: 6 or more miles (10+ km)
Ceiling: 1400 feet AGL
Clouds: broken clouds at 1400 feet AGL
Weather: no significant weather observed at this time

METAR text: UACC 221000Z 17003MPS 9999 BKN014 M11/M13 Q1026 R22/35//55 NOSIG RMK QFE738/0984
Conditions at: UACC (ASTANA KAZAKHSTA, KZ) observed 1000 UTC 22 January 2019
Temperature: -11.0°C (12°F)
Dewpoint: -13.0°C ( 9°F) [RH = 85%]
Pressure (altimeter): 30.30 inches Hg (1026.0 mb)
Winds: from the S (170 degrees) at 7 MPH (6 knots; 3.1 m/s)
Visibility: 6 or more miles (10+ km)
Ceiling: 1400 feet AGL
Clouds: broken clouds at 1400 feet AGL
Weather: no significant weather observed at this time

METAR text: UACC 220930Z 15003MPS 9999 BKN013 M12/M13 Q1026 R22/35//55 NOSIG RMK QFE738/0984
Conditions at: UACC (ASTANA KAZAKHSTA, KZ) observed 0930 UTC 22 January 2019
Temperature: -12.0°C (10°F)
Dewpoint: -13.0°C ( 9°F) [RH = 92%]
Pressure (altimeter): 30.30 inches Hg (1026.0 mb)
Winds: from the SSE (150 degrees) at 7 MPH (6 knots; 3.1 m/s)
Visibility: 6 or more miles (10+ km)
Ceiling: 1300 feet AGL
Clouds: broken clouds at 1300 feet AGL
Weather: no significant weather observed at this time

METAR text: UACC 220900Z 17002MPS CAVOK M11/M12 Q1027 R22/35//55 NOSIG RMK QFE738/0985
Conditions at: UACC (ASTANA KAZAKHSTA, KZ) observed 0900 UTC 22 January 2019
Temperature: -11.0°C (12°F)
Dewpoint: -12.0°C (10°F) [RH = 92%]
Pressure (altimeter): 30.32 inches Hg (1027.0 mb)
Winds: from the S (170 degrees) at 5 MPH (4 knots; 2.1 m/s)
Visibility: 6 or more miles (10+ km)
Ceiling: ceiling and visibility are OK
Clouds: unknown
Weather: no significant weather observed at this time

Forecast for: UACC (ASTANA KAZAKHSTA, KZ)
Text: TAF UACC 231700Z 2318/2418 18006MPS 6000 BKN005 OVC015 TXM06/2406Z TNM14/2401Z
Forecast period: 1800 UTC 23 January 2019 to 0100 UTC 24 January 2019
Forecast type: FROM: standard forecast or significant change
Winds: from the S (180 degrees) at 14 MPH (12 knots; 6.2 m/s)
Visibility: 4 miles (6 km)
Ceiling: 500 feet AGL
Clouds: broken clouds at 500 feet AGL
overcast cloud deck at 1500 feet AGL
Weather: no significant weather forecast for this period
Text: TEMPO 2318/2401 20009MPS 1000 SN BR BKN002
Forecast period: 1800 UTC 23 January 2019 to 0100 UTC 24 January 2019
Forecast type: TEMPORARY: The following changes expected for less than half the time period
Winds: from the SSW (200 degrees) at 20 MPH (17 knots; 8.7 m/s)
Visibility: 0.62 miles (1.00 km)
Ceiling: 200 feet AGL
Clouds: broken clouds at 200 feet AGL
Weather: SN BR  (moderate snow, mist)
Text: FM240100 22010MPS 3000 SN DRSN BKN007 OVC020
Forecast period: 0100 to 0600 UTC 24 January 2019
Forecast type: FROM: standard forecast or significant change
Winds: from the SW (220 degrees) at 22 MPH (19 knots; 9.8 m/s)
Visibility: 1.86 miles (2.99 km)
Ceiling: 700 feet AGL
Clouds: broken clouds at 700 feet AGL
overcast cloud deck at 2000 feet AGL
Weather: SN DRSN  (moderate snow, low drifting snow)
Text: TEMPO 2401/2406 22009G14MPS 1000 SHSN BLSN BKN003 BKN010CB
Forecast period: 0100 to 0600 UTC 24 January 2019
Forecast type: TEMPORARY: The following changes expected for less than half the time period
Winds: from the SW (220 degrees) at 20 MPH (17 knots; 8.7 m/s)
gusting to 31 MPH (27 knots; 13.9 m/s)
Visibility: 0.62 miles (1.00 km)
Ceiling: 300 feet AGL
Clouds: broken clouds at 300 feet AGL
broken clouds at 1000 feet AGL
Weather: SHSN BLSN  (snow showers, blowing snow)
Text: BECMG 2406/2408 26012MPS
Forecast period: 0600 to 1800 UTC 24 January 2019
Forecast type: BECOMING: Conditions expected to become as follows by 0800 UTC 24 January 2019
Winds: from the W (260 degrees) at 26 MPH (23 knots; 11.8 m/s)
Visibility: 1.86 miles (2.99 km)
Ceiling: 700 feet AGL
Clouds: broken clouds at 700 feet AGL
overcast cloud deck at 2000 feet AGL
Weather: SN DRSN  (moderate snow, low drifting snow)
Text: TEMPO 2406/2415 29010G15MPS 0800 SHSN BLSN BKN005 BKN020CB
Forecast period: 0600 to 1500 UTC 24 January 2019
Forecast type: TEMPORARY: The following changes expected for less than half the time period
Winds: from the WNW (290 degrees) at 22 MPH (19 knots; 9.8 m/s)
gusting to 33 MPH (29 knots; 14.9 m/s)
Visibility: 0.50 miles (0.80 km)
Ceiling: 500 feet AGL
Clouds: broken clouds at 500 feet AGL
broken clouds at 2000 feet AGL
Weather: SHSN BLSN  (snow showers, blowing snow)